Aliq, Pennsylvania
Current Conditions -  °F | °C
As of 7:51 AM on Saturday 20 Dec 2014 (Local Time) from KPIT Reporting Station
Overcast Overcast  
Wind Chill: -7°   Ceiling: 2300
Heat Index: -3°   Visibility: 10mi
Dew Point: -7°   Wind: 6mph
Humidity: 75%   Direction: 30°NNE
Pressure: 30.26"   Gusts: NA
Location:  40.5921°N, 80.3191°W
Report Text: KPIT 201251Z 03005KT 10SM BKN023 OVC200 M03/M07 A3026 RMK AO2 SLP268 T10331072
Loading
Personal Weather Stations






























Interactive Weather Map New forecast layout! Learn more

10-Day Weather Forecast

Advertisements
Track Severe Weather on mobile